createdAt,value
2018-12-22T00:00:08.750Z,99.90
2018-12-22T00:02:37.903Z,99.90
2018-12-22T00:05:07.351Z,99.80
2018-12-22T00:07:36.775Z,99.80
2018-12-22T00:10:06.211Z,99.90
2018-12-22T00:12:35.457Z,99.90
2018-12-22T00:15:04.986Z,99.90
2018-12-22T00:17:34.137Z,99.90
2018-12-22T00:20:03.392Z,99.90
2018-12-22T00:22:32.760Z,99.90
2018-12-22T00:25:01.802Z,99.90
2018-12-22T00:27:30.851Z,99.90
2018-12-22T00:30:00.339Z,99.90
2018-12-22T00:32:29.499Z,99.90
2018-12-22T00:34:58.549Z,99.90
2018-12-22T00:37:28.058Z,99.90
2018-12-22T00:39:57.363Z,99.90
2018-12-22T00:42:26.635Z,99.90
2018-12-22T00:44:55.803Z,99.90
2018-12-22T00:47:24.888Z,99.90
2018-12-22T00:49:54.098Z,99.90
2018-12-22T00:52:23.259Z,99.90
2018-12-22T00:54:52.517Z,99.90
2018-12-22T00:57:21.900Z,99.90
2018-12-22T00:59:51.027Z,99.90
2018-12-22T01:02:20.238Z,99.90
2018-12-22T01:04:49.448Z,99.90
2018-12-22T01:07:18.704Z,99.90
2018-12-22T01:09:47.857Z,99.90
2018-12-22T01:12:17.043Z,99.90
2018-12-22T01:14:46.415Z,99.90
2018-12-22T01:17:15.679Z,99.90
2018-12-22T01:19:44.950Z,99.90
2018-12-22T01:22:14.113Z,99.90
2018-12-22T01:24:43.306Z,99.90
2018-12-22T01:27:12.521Z,99.90
2018-12-22T01:29:41.578Z,99.90
2018-12-22T01:32:10.803Z,99.90
2018-12-22T01:34:40.047Z,99.90
2018-12-22T01:37:09.167Z,99.90
2018-12-22T01:39:38.601Z,99.90
2018-12-22T01:42:07.778Z,99.90
2018-12-22T01:44:37.012Z,99.90
2018-12-22T01:47:06.206Z,99.90
2018-12-22T01:49:35.406Z,99.90
2018-12-22T01:52:04.759Z,99.90
2018-12-22T01:54:34.026Z,99.90
2018-12-22T01:57:03.397Z,99.90
2018-12-22T01:59:34.650Z,99.90
2018-12-22T02:02:03.679Z,99.90
2018-12-22T02:04:32.840Z,99.90
2018-12-22T02:07:01.831Z,99.90
2018-12-22T02:09:31.173Z,99.90
2018-12-22T02:12:00.389Z,99.90
2018-12-22T02:14:29.683Z,99.90
2018-12-22T02:16:58.810Z,99.90
2018-12-22T02:19:27.940Z,99.90
2018-12-22T02:21:57.185Z,99.90
2018-12-22T02:24:26.445Z,99.90
2018-12-22T02:26:55.909Z,99.90
2018-12-22T02:29:25.065Z,99.90
2018-12-22T02:31:54.175Z,99.90
2018-12-22T02:34:23.407Z,99.90
2018-12-22T02:36:52.621Z,99.90
2018-12-22T02:39:22.056Z,99.90
2018-12-22T02:41:51.374Z,99.90
2018-12-22T02:44:20.652Z,99.90
2018-12-22T02:46:49.888Z,99.90
2018-12-22T02:49:19.250Z,99.90
2018-12-22T02:51:48.633Z,99.90
2018-12-22T02:54:17.938Z,99.90
2018-12-22T02:56:47.583Z,99.90
2018-12-22T02:59:16.767Z,99.90
2018-12-22T03:01:45.759Z,99.90
2018-12-22T03:04:15.253Z,99.90
2018-12-22T03:06:44.525Z,99.90
2018-12-22T03:09:13.657Z,99.90
2018-12-22T03:11:42.896Z,99.90
2018-12-22T03:14:12.267Z,99.90
2018-12-22T03:16:41.162Z,99.90
2018-12-22T03:19:10.366Z,99.90
2018-12-22T03:21:39.774Z,99.90
2018-12-22T03:24:08.992Z,99.90
2018-12-22T03:26:38.329Z,99.90
2018-12-22T03:29:15.572Z,99.90
2018-12-22T03:31:39.027Z,99.90
2018-12-22T03:34:08.491Z,99.90
2018-12-22T03:36:38.164Z,99.90
2018-12-22T03:39:08.627Z,99.90
2018-12-22T03:41:37.988Z,99.90
2018-12-22T03:44:07.046Z,99.90
2018-12-22T03:46:36.054Z,99.80
2018-12-22T03:49:05.146Z,98.90
2018-12-22T03:51:34.328Z,99.00
2018-12-22T03:54:03.482Z,98.60
2018-12-22T03:56:32.414Z,98.10
2018-12-22T03:59:01.514Z,98.10
2018-12-22T04:01:30.619Z,98.20
2018-12-22T04:03:59.782Z,98.50
2018-12-22T04:06:28.942Z,98.10
2018-12-22T04:08:58.454Z,97.90
2018-12-22T04:11:27.544Z,97.40
2018-12-22T04:13:57.073Z,97.70
2018-12-22T04:16:26.423Z,98.00
2018-12-22T04:18:55.863Z,98.30
2018-12-22T04:21:25.088Z,98.00
2018-12-22T04:23:54.278Z,98.20
2018-12-22T04:26:23.389Z,98.30
2018-12-22T04:28:52.630Z,97.90
2018-12-22T04:31:21.919Z,97.40
2018-12-22T04:33:50.688Z,97.10
2018-12-22T04:36:19.731Z,96.70
2018-12-22T04:38:48.866Z,96.60
2018-12-22T04:41:17.899Z,96.60
2018-12-22T04:43:47.027Z,95.90
2018-12-22T04:46:16.143Z,95.60
2018-12-22T04:48:45.258Z,94.80
2018-12-22T04:51:14.467Z,94.40
2018-12-22T04:53:43.634Z,93.80
2018-12-22T04:56:12.776Z,94.20
2018-12-22T04:58:41.966Z,94.10
2018-12-22T05:01:11.129Z,94.00
2018-12-22T05:03:40.083Z,94.40
2018-12-22T05:06:09.513Z,94.20
2018-12-22T05:08:46.830Z,94.10
2018-12-22T05:11:15.910Z,94.50
2018-12-22T05:13:45.177Z,94.40
2018-12-22T05:16:14.488Z,93.70
2018-12-22T05:18:43.705Z,93.30
2018-12-22T05:21:13.263Z,92.80
2018-12-22T05:23:42.402Z,92.30
2018-12-22T05:26:11.734Z,92.60
2018-12-22T05:28:41.092Z,93.20
2018-12-22T05:31:10.057Z,92.80
2018-12-22T05:33:39.298Z,93.20
2018-12-22T05:36:08.726Z,93.10
2018-12-22T05:38:37.854Z,93.10
2018-12-22T05:41:07.006Z,92.90
2018-12-22T05:43:39.374Z,92.80
2018-12-22T05:46:08.574Z,93.30
2018-12-22T05:48:37.935Z,93.20
2018-12-22T05:51:06.743Z,93.70
2018-12-22T05:53:35.870Z,94.10
2018-12-22T05:56:05.893Z,94.50
2018-12-22T05:58:40.156Z,95.00
2018-12-22T06:01:09.307Z,94.80
2018-12-22T06:03:38.482Z,94.90
2018-12-22T06:06:07.655Z,95.10
2018-12-22T06:08:36.657Z,96.50
2018-12-22T06:11:05.903Z,96.60
2018-12-22T06:13:36.532Z,96.40
2018-12-22T06:16:05.873Z,96.60
2018-12-22T06:18:35.063Z,96.60
2018-12-22T06:21:04.279Z,97.30
2018-12-22T06:23:33.422Z,98.00
2018-12-22T06:26:03.238Z,97.80
2018-12-22T06:28:32.823Z,97.50
2018-12-22T06:31:01.931Z,97.70
2018-12-22T06:33:31.050Z,97.10
2018-12-22T06:36:00.422Z,97.30
2018-12-22T06:38:29.467Z,96.90
2018-12-22T06:40:59.004Z,96.50
2018-12-22T06:43:28.306Z,96.30
2018-12-22T06:45:57.386Z,96.20
2018-12-22T06:48:26.369Z,95.20
2018-12-22T06:50:55.685Z,95.30
2018-12-22T06:53:25.091Z,95.10
2018-12-22T06:55:54.034Z,95.10
2018-12-22T06:58:23.276Z,95.10
2018-12-22T07:00:52.543Z,94.80
2018-12-22T07:03:21.951Z,94.30
2018-12-22T07:05:51.684Z,94.50
2018-12-22T07:08:20.911Z,94.80
2018-12-22T07:10:50.265Z,94.70
2018-12-22T07:13:19.490Z,95.70
2018-12-22T07:15:48.687Z,96.50
2018-12-22T07:18:17.887Z,96.70
2018-12-22T07:20:47.204Z,97.00
2018-12-22T07:23:16.394Z,96.50
2018-12-22T07:25:45.592Z,97.90
2018-12-22T07:28:15.068Z,99.90
2018-12-22T07:30:44.422Z,99.90
2018-12-22T07:33:13.540Z,99.90
2018-12-22T07:35:42.794Z,98.20
2018-12-22T07:38:12.935Z,98.60
2018-12-22T07:40:42.215Z,98.70
2018-12-22T07:43:11.384Z,99.30
2018-12-22T07:45:40.620Z,99.40
2018-12-22T07:48:09.759Z,99.10
2018-12-22T07:50:39.142Z,98.20
2018-12-22T07:53:08.281Z,97.80
2018-12-22T07:55:37.956Z,97.20
2018-12-22T07:58:07.688Z,97.10
2018-12-22T08:00:36.782Z,96.60
2018-12-22T08:03:05.632Z,95.40
2018-12-22T08:05:38.964Z,94.80
2018-12-22T08:08:06.363Z,95.00
2018-12-22T08:10:35.435Z,95.20
2018-12-22T08:13:04.720Z,95.10
2018-12-22T08:15:34.007Z,96.10
2018-12-22T08:18:03.531Z,95.70
2018-12-22T08:20:32.855Z,96.00
2018-12-22T08:23:01.982Z,95.90
2018-12-22T08:25:31.312Z,96.00
2018-12-22T08:28:00.710Z,95.70
2018-12-22T08:30:30.236Z,96.30
2018-12-22T08:33:00.175Z,96.40
2018-12-22T08:35:29.467Z,96.60
2018-12-22T08:37:59.343Z,96.90
2018-12-22T08:40:28.458Z,96.90
2018-12-22T08:42:57.722Z,97.00
2018-12-22T08:45:28.402Z,98.30
2018-12-22T08:47:57.676Z,98.80
2018-12-22T08:50:26.895Z,99.30
2018-12-22T08:52:56.031Z,99.50
2018-12-22T08:55:25.670Z,99.70
2018-12-22T08:57:54.835Z,99.60
2018-12-22T09:00:24.096Z,99.80
2018-12-22T09:02:53.058Z,99.80
2018-12-22T09:05:22.161Z,99.90
2018-12-22T09:07:51.568Z,99.90
2018-12-22T09:10:20.854Z,99.90
2018-12-22T09:12:50.099Z,99.90
2018-12-22T09:15:19.496Z,99.90
2018-12-22T09:17:48.726Z,99.90
2018-12-22T09:20:18.425Z,99.90
2018-12-22T09:22:47.590Z,99.60
2018-12-22T09:25:17.056Z,99.70
2018-12-22T09:27:46.374Z,99.40
2018-12-22T09:30:15.756Z,99.40
2018-12-22T09:32:45.348Z,99.30
2018-12-22T09:35:15.132Z,98.30
2018-12-22T09:37:44.420Z,97.60
2018-12-22T09:40:14.063Z,97.30
2018-12-22T09:42:43.091Z,97.30
2018-12-22T09:45:12.345Z,97.80
2018-12-22T09:47:41.545Z,97.60
2018-12-22T09:50:12.528Z,98.00
2018-12-22T09:52:41.794Z,97.60
2018-12-22T09:55:11.120Z,98.10
2018-12-22T09:57:40.582Z,97.40
2018-12-22T10:00:12.179Z,97.90
2018-12-22T10:02:41.476Z,97.90
2018-12-22T10:05:18.192Z,97.30
2018-12-22T10:07:47.621Z,97.00
2018-12-22T10:10:18.236Z,96.40
2018-12-22T10:12:47.466Z,95.60
2018-12-22T10:15:17.028Z,95.40
2018-12-22T10:17:46.096Z,95.70
2018-12-22T10:20:15.408Z,95.90
2018-12-22T10:22:45.137Z,95.80
2018-12-22T10:25:14.265Z,95.50
2018-12-22T10:27:43.303Z,95.80
2018-12-22T10:30:15.639Z,95.60
2018-12-22T10:32:44.897Z,95.30
2018-12-22T10:35:23.552Z,95.30
2018-12-22T10:37:52.874Z,94.90
2018-12-22T10:40:22.061Z,93.90
2018-12-22T10:42:51.060Z,94.10
2018-12-22T10:45:20.636Z,94.00
2018-12-22T10:47:49.963Z,93.70
2018-12-22T10:50:19.235Z,93.10
2018-12-22T10:52:48.878Z,92.80
2018-12-22T10:55:20.011Z,92.90
2018-12-22T10:57:49.317Z,93.00
2018-12-22T11:00:19.284Z,92.00
2018-12-22T11:02:48.625Z,92.00
2018-12-22T11:05:17.863Z,92.40
2018-12-22T11:07:47.490Z,92.30
2018-12-22T11:10:22.050Z,91.50
2018-12-22T11:12:52.681Z,91.10
2018-12-22T11:15:21.900Z,91.10
2018-12-22T11:17:51.318Z,90.80
2018-12-22T11:20:21.035Z,91.00
2018-12-22T11:22:53.619Z,91.10
2018-12-22T11:25:25.346Z,91.40
2018-12-22T11:27:54.872Z,91.40
2018-12-22T11:30:33.709Z,92.70
2018-12-22T11:33:03.416Z,93.60
2018-12-22T11:35:32.818Z,95.00
2018-12-22T11:38:06.353Z,96.50
2018-12-22T11:40:35.390Z,97.40
2018-12-22T11:43:04.502Z,98.50
2018-12-22T11:45:33.926Z,99.30
2018-12-22T11:50:13.339Z,99.60
2018-12-22T11:52:42.415Z,99.50
2018-12-22T11:55:11.791Z,99.80
2018-12-22T11:57:40.939Z,97.90
2018-12-22T12:00:11.490Z,97.50
2018-12-22T12:02:41.691Z,97.30
2018-12-22T12:05:11.790Z,98.40
2018-12-22T12:07:41.146Z,99.40
2018-12-22T12:10:11.275Z,98.90
2018-12-22T12:12:40.566Z,98.30
2018-12-22T12:15:17.373Z,98.00
2018-12-22T12:18:02.483Z,98.20
2018-12-22T12:20:31.566Z,97.60
2018-12-22T12:23:00.781Z,98.10
2018-12-22T12:25:29.935Z,97.60
2018-12-22T12:27:59.125Z,97.20
2018-12-22T12:30:28.455Z,96.80
2018-12-22T12:32:58.152Z,96.70
2018-12-22T12:35:27.462Z,95.30
2018-12-22T12:37:56.562Z,94.20
2018-12-22T12:40:25.585Z,92.80
2018-12-22T12:42:54.746Z,93.70
2018-12-22T12:45:26.742Z,94.30
2018-12-22T12:47:55.825Z,95.50
2018-12-22T12:50:25.119Z,95.80
2018-12-22T12:52:54.279Z,94.10
2018-12-22T12:55:23.759Z,92.10
2018-12-22T12:57:53.019Z,90.70
2018-12-22T13:00:22.342Z,87.50
2018-12-22T13:02:51.624Z,83.70
2018-12-22T13:05:20.820Z,84.80
2018-12-22T13:07:50.121Z,83.40
2018-12-22T13:10:26.858Z,84.70
2018-12-22T13:14:03.695Z,83.90
2018-12-22T13:16:33.623Z,82.60
2018-12-22T13:19:02.999Z,82.60
2018-12-22T13:21:32.139Z,83.00
2018-12-22T13:24:01.388Z,81.40
2018-12-22T13:26:36.735Z,79.80
2018-12-22T13:29:02.679Z,83.40
2018-12-22T13:31:31.941Z,85.10
2018-12-22T13:34:01.410Z,86.40
2018-12-22T13:36:34.853Z,87.30
2018-12-22T13:39:06.066Z,88.50
2018-12-22T13:41:36.966Z,88.20
2018-12-22T13:44:07.212Z,89.60
2018-12-22T13:46:36.321Z,89.50
2018-12-22T13:49:05.581Z,90.60
2018-12-22T13:51:34.784Z,90.50
2018-12-22T13:54:04.175Z,90.90
2018-12-22T13:56:33.883Z,90.50
2018-12-22T13:59:03.635Z,91.20
2018-12-22T14:01:35.952Z,92.00
2018-12-22T14:04:05.298Z,92.60
2018-12-22T14:06:39.321Z,92.90
2018-12-22T14:09:09.200Z,93.30
2018-12-22T14:11:38.413Z,93.70
2018-12-22T14:14:08.395Z,93.60
2018-12-22T14:17:52.063Z,93.60
2018-12-22T14:20:22.901Z,94.20
2018-12-22T14:22:52.418Z,95.60
2018-12-22T14:25:26.073Z,96.00
2018-12-22T14:27:55.299Z,96.50
2018-12-22T14:30:24.904Z,97.00
2018-12-22T14:32:54.045Z,97.80
2018-12-22T14:35:59.076Z,97.60
2018-12-22T14:38:28.317Z,97.30
2018-12-22T14:40:57.394Z,97.50
2018-12-22T14:43:26.703Z,97.70
2018-12-22T14:45:55.843Z,96.80
2018-12-22T14:48:25.023Z,96.80
2018-12-22T14:50:53.993Z,97.10
2018-12-22T14:53:23.155Z,96.50
2018-12-22T14:55:52.486Z,96.30
2018-12-22T14:58:25.616Z,96.10
2018-12-22T15:00:55.575Z,96.00
2018-12-22T15:03:24.733Z,95.90
2018-12-22T15:05:54.022Z,95.90
2018-12-22T15:08:23.329Z,95.70
2018-12-22T15:10:52.471Z,96.00
2018-12-22T15:13:21.716Z,96.00
2018-12-22T15:15:50.975Z,96.20
2018-12-22T15:18:20.186Z,97.10
2018-12-22T15:20:49.386Z,97.20
2018-12-22T15:23:18.971Z,97.60
2018-12-22T15:25:48.082Z,97.90
2018-12-22T15:28:17.451Z,98.10
2018-12-22T15:30:47.140Z,98.10
2018-12-22T15:33:16.761Z,98.20
2018-12-22T15:35:45.999Z,98.50
2018-12-22T15:38:15.179Z,98.60
2018-12-22T15:40:44.422Z,98.90
2018-12-22T15:43:13.553Z,99.30
2018-12-22T15:45:42.991Z,99.10
2018-12-22T15:48:12.145Z,99.30
2018-12-22T15:50:42.588Z,99.40
2018-12-22T15:53:11.546Z,99.90
2018-12-22T15:55:40.633Z,99.90
2018-12-22T15:58:10.279Z,99.90
2018-12-22T16:00:39.436Z,99.90
2018-12-22T16:03:09.041Z,99.90
2018-12-22T16:05:37.893Z,99.90
2018-12-22T16:08:07.284Z,99.80
2018-12-22T16:10:36.448Z,99.90
2018-12-22T16:13:05.813Z,99.90
2018-12-22T16:15:49.910Z,99.90
2018-12-22T16:18:19.134Z,99.90
2018-12-22T16:20:48.354Z,99.90
2018-12-22T16:23:17.581Z,99.90
2018-12-22T16:25:46.722Z,99.90
2018-12-22T16:28:32.370Z,99.90
2018-12-22T16:31:01.600Z,99.90
2018-12-22T16:33:30.774Z,99.90
2018-12-22T16:36:00.375Z,99.90
2018-12-22T16:38:29.451Z,99.90
2018-12-22T16:40:58.679Z,99.90
2018-12-22T16:43:27.834Z,99.90
2018-12-22T16:46:03.001Z,99.90
2018-12-22T16:48:32.959Z,99.90
2018-12-22T16:51:02.105Z,99.90
2018-12-22T16:53:31.275Z,99.90
2018-12-22T16:56:00.627Z,99.90
2018-12-22T16:58:36.785Z,99.30
2018-12-22T17:01:25.767Z,98.90
2018-12-22T17:03:55.101Z,98.60
2018-12-22T17:06:24.402Z,97.90
2018-12-22T17:08:53.754Z,97.80
2018-12-22T17:11:23.306Z,98.00
2018-12-22T17:13:52.613Z,97.80
2018-12-22T17:16:21.755Z,97.50
2018-12-22T17:18:50.963Z,97.40
2018-12-22T17:21:24.910Z,97.10
2018-12-22T17:24:01.225Z,96.90
2018-12-22T17:26:32.563Z,96.80
2018-12-22T17:29:02.236Z,96.60
2018-12-22T17:31:31.062Z,96.80
2018-12-22T17:34:00.144Z,96.80
2018-12-22T17:36:29.560Z,96.50
2018-12-22T17:38:59.125Z,96.50
2018-12-22T17:41:28.377Z,96.80
2018-12-22T17:43:57.592Z,96.40
2018-12-22T17:46:27.087Z,96.50
2018-12-22T17:48:56.004Z,96.30
2018-12-22T17:51:25.413Z,96.50
2018-12-22T17:53:54.505Z,96.50
2018-12-22T17:56:23.823Z,96.30
2018-12-22T17:58:52.891Z,96.50
2018-12-22T18:01:22.161Z,96.80
2018-12-22T18:03:51.295Z,96.70
2018-12-22T18:06:20.399Z,96.80
2018-12-22T18:08:49.611Z,96.50
2018-12-22T18:11:18.787Z,95.70
2018-12-22T18:13:47.986Z,95.60
2018-12-22T18:16:17.190Z,95.60
2018-12-22T18:18:50.291Z,95.50
2018-12-22T18:21:19.731Z,95.50
2018-12-22T18:23:49.183Z,95.20
2018-12-22T18:26:18.417Z,95.70
2018-12-22T18:28:47.351Z,95.50
2018-12-22T18:31:16.727Z,95.60
2018-12-22T18:33:45.897Z,95.50
2018-12-22T18:36:15.071Z,95.00
2018-12-22T18:38:44.316Z,94.90
2018-12-22T18:41:13.771Z,95.10
2018-12-22T18:43:42.914Z,95.10
2018-12-22T18:46:12.272Z,95.50
2018-12-22T18:48:41.473Z,95.20
2018-12-22T18:51:10.631Z,94.50
2018-12-22T18:53:39.972Z,94.80
2018-12-22T18:56:09.041Z,94.60
2018-12-22T18:58:38.286Z,94.60
2018-12-22T19:01:07.360Z,94.70
2018-12-22T19:03:44.541Z,94.40
2018-12-22T19:06:08.113Z,94.50
2018-12-22T19:08:37.351Z,94.20
2018-12-22T19:11:09.286Z,93.80
2018-12-22T19:13:38.731Z,93.60
2018-12-22T19:16:07.928Z,93.50
2018-12-22T19:18:37.079Z,93.30
2018-12-22T19:21:06.240Z,93.30
2018-12-22T19:23:35.381Z,93.50
2018-12-22T19:26:04.655Z,93.30
2018-12-22T19:28:35.858Z,93.60
2018-12-22T19:31:04.954Z,93.80
2018-12-22T19:33:34.197Z,93.90
2018-12-22T19:36:03.499Z,93.50
2018-12-22T19:38:32.725Z,93.20
2018-12-22T19:41:02.016Z,93.30
2018-12-22T19:43:31.365Z,93.50
2018-12-22T19:46:00.744Z,93.70
2018-12-22T19:48:29.611Z,93.90
2018-12-22T19:51:07.563Z,94.00
2018-12-22T19:53:37.171Z,94.20
2018-12-22T19:56:06.330Z,94.30
2018-12-22T19:58:37.219Z,94.10
2018-12-22T20:01:06.319Z,94.00
2018-12-22T20:03:36.266Z,94.20
2018-12-22T20:06:05.506Z,94.20
2018-12-22T20:08:35.011Z,94.10
2018-12-22T20:11:04.131Z,94.20
2018-12-22T20:13:33.539Z,94.60
2018-12-22T20:16:08.916Z,94.90
2018-12-22T20:18:34.444Z,95.10
2018-12-22T20:21:03.933Z,95.40
2018-12-22T20:23:33.252Z,95.80
2018-12-22T20:26:02.514Z,95.90
2018-12-22T20:28:31.706Z,95.80
2018-12-22T20:31:01.116Z,95.90
2018-12-22T20:33:30.142Z,96.00
2018-12-22T20:35:59.326Z,96.00
2018-12-22T20:38:28.634Z,96.10
2018-12-22T20:40:58.130Z,96.40
2018-12-22T20:43:27.840Z,96.60
2018-12-22T20:45:57.196Z,96.70
2018-12-22T20:48:26.367Z,96.80
2018-12-22T20:50:55.931Z,96.90
2018-12-22T20:53:25.041Z,96.90
2018-12-22T20:55:54.744Z,96.80
2018-12-22T20:58:23.836Z,96.70
2018-12-22T21:00:53.083Z,96.60
2018-12-22T21:03:24.709Z,96.50
2018-12-22T21:06:01.192Z,96.60
2018-12-22T21:08:30.358Z,96.20
2018-12-22T21:10:59.531Z,95.70
2018-12-22T21:13:29.158Z,95.90
2018-12-22T21:15:58.031Z,95.80
2018-12-22T21:18:27.081Z,95.90
2018-12-22T21:20:55.995Z,96.00
2018-12-22T21:23:25.629Z,96.00
2018-12-22T21:25:55.220Z,96.00
2018-12-22T21:28:24.264Z,96.00
2018-12-22T21:30:53.372Z,96.30
2018-12-22T21:33:22.473Z,95.70
2018-12-22T21:35:53.475Z,95.60
2018-12-22T21:38:22.920Z,95.70
2018-12-22T21:40:53.137Z,95.40
2018-12-22T21:43:22.510Z,95.10
2018-12-22T21:45:51.674Z,95.00
2018-12-22T21:48:20.851Z,94.90
2018-12-22T21:50:50.130Z,94.80
2018-12-22T21:53:19.380Z,95.00
2018-12-22T21:55:48.608Z,95.10
2018-12-22T21:58:17.765Z,95.20
2018-12-22T22:00:47.139Z,94.70
2018-12-22T22:03:16.656Z,94.60
2018-12-22T22:05:45.997Z,94.60
2018-12-22T22:08:16.227Z,94.70
2018-12-22T22:10:45.364Z,94.40
2018-12-22T22:13:14.391Z,94.60
2018-12-22T22:15:43.759Z,94.70
2018-12-22T22:18:14.086Z,94.90
2018-12-22T22:20:43.383Z,94.90
2018-12-22T22:23:18.784Z,95.20
2018-12-22T22:25:43.697Z,95.60
2018-12-22T22:28:12.890Z,95.50
2018-12-22T22:30:42.011Z,95.80
2018-12-22T22:33:11.171Z,95.80
2018-12-22T22:35:40.515Z,95.90
2018-12-22T22:38:09.723Z,96.00
2018-12-22T22:40:38.939Z,96.00
2018-12-22T22:43:08.145Z,96.10
2018-12-22T22:45:37.388Z,96.20
2018-12-22T22:48:06.533Z,96.20
2018-12-22T22:50:35.798Z,96.20
2018-12-22T22:53:05.499Z,96.20
2018-12-22T22:55:34.824Z,96.20
2018-12-22T22:58:04.079Z,96.10
2018-12-22T23:00:36.960Z,95.90
2018-12-22T23:03:06.259Z,96.00
2018-12-22T23:05:35.570Z,96.00
2018-12-22T23:08:04.727Z,95.80
2018-12-22T23:10:34.313Z,96.00
2018-12-22T23:13:03.503Z,95.90
2018-12-22T23:15:32.689Z,95.70
2018-12-22T23:18:01.847Z,95.70
2018-12-22T23:20:31.092Z,95.90
2018-12-22T23:23:00.268Z,96.10
2018-12-22T23:25:29.358Z,96.10
2018-12-22T23:27:58.736Z,96.20
2018-12-22T23:30:28.165Z,96.30
2018-12-22T23:32:57.426Z,96.20
2018-12-22T23:35:26.732Z,96.30
2018-12-22T23:37:55.899Z,96.20
2018-12-22T23:40:25.555Z,96.30
2018-12-22T23:42:54.742Z,96.40
2018-12-22T23:45:24.360Z,96.10
2018-12-22T23:47:53.602Z,96.10
2018-12-22T23:50:22.833Z,96.10
2018-12-22T23:52:52.194Z,96.00
2018-12-22T23:55:21.450Z,96.10
2018-12-22T23:57:50.571Z,96.10
